sensor_id;sensor_type;location;lat;lon;timestamp;P1;durP1;ratioP1;P2;durP2;ratioP2
15476;SDS011;7840;42.702;23.296;2022-12-04T00:01:04;27.30;;;17.63;;
15476;SDS011;7840;42.702;23.296;2022-12-04T00:03:35;24.60;;;17.77;;
15476;SDS011;7840;42.702;23.296;2022-12-04T00:06:19;25.10;;;18.30;;
15476;SDS011;7840;42.702;23.296;2022-12-04T00:08:53;22.97;;;18.03;;
15476;SDS011;7840;42.702;23.296;2022-12-04T00:14:52;20.97;;;16.53;;
15476;SDS011;7840;42.702;23.296;2022-12-04T00:17:36;23.27;;;16.77;;
15476;SDS011;7840;42.702;23.296;2022-12-04T00:34:54;33.43;;;21.33;;
15476;SDS011;7840;42.702;23.296;2022-12-04T00:37:22;28.10;;;20.33;;
15476;SDS011;7840;42.702;23.296;2022-12-04T00:39:49;30.33;;;20.90;;
15476;SDS011;7840;42.702;23.296;2022-12-04T00:42:17;18.33;;;14.50;;
15476;SDS011;7840;42.702;23.296;2022-12-04T00:44:45;22.27;;;16.73;;
15476;SDS011;7840;42.702;23.296;2022-12-04T00:47:12;31.63;;;21.03;;
15476;SDS011;7840;42.702;23.296;2022-12-04T00:49:43;31.67;;;22.00;;
15476;SDS011;7840;42.702;23.296;2022-12-04T00:52:12;31.17;;;22.83;;
15476;SDS011;7840;42.702;23.296;2022-12-04T00:54:39;27.27;;;20.80;;
15476;SDS011;7840;42.702;23.296;2022-12-04T00:57:09;31.07;;;22.70;;
15476;SDS011;7840;42.702;23.296;2022-12-04T00:59:37;36.20;;;23.73;;
15476;SDS011;7840;42.702;23.296;2022-12-04T01:02:05;35.90;;;23.77;;
15476;SDS011;7840;42.702;23.296;2022-12-04T01:04:32;35.60;;;24.13;;
15476;SDS011;7840;42.702;23.296;2022-12-04T01:07:00;32.90;;;22.77;;
15476;SDS011;7840;42.702;23.296;2022-12-04T01:09:29;35.83;;;24.13;;
15476;SDS011;7840;42.702;23.296;2022-12-04T01:11:57;36.50;;;23.60;;
15476;SDS011;7840;42.702;23.296;2022-12-04T01:14:24;36.23;;;24.80;;
15476;SDS011;7840;42.702;23.296;2022-12-04T01:16:52;34.80;;;25.37;;
15476;SDS011;7840;42.702;23.296;2022-12-04T01:19:20;33.23;;;23.67;;
15476;SDS011;7840;42.702;23.296;2022-12-04T01:21:47;41.17;;;24.57;;
15476;SDS011;7840;42.702;23.296;2022-12-04T01:24:15;38.13;;;24.97;;
15476;SDS011;7840;42.702;23.296;2022-12-04T01:26:45;37.53;;;25.07;;
15476;SDS011;7840;42.702;23.296;2022-12-04T01:29:13;38.50;;;24.57;;
15476;SDS011;7840;42.702;23.296;2022-12-04T01:31:40;36.17;;;24.27;;
15476;SDS011;7840;42.702;23.296;2022-12-04T01:34:08;35.03;;;22.80;;
15476;SDS011;7840;42.702;23.296;2022-12-04T01:36:36;33.60;;;22.53;;
15476;SDS011;7840;42.702;23.296;2022-12-04T01:39:03;31.07;;;19.97;;
15476;SDS011;7840;42.702;23.296;2022-12-04T01:41:31;33.43;;;23.37;;
15476;SDS011;7840;42.702;23.296;2022-12-04T01:46:50;29.53;;;21.47;;
15476;SDS011;7840;42.702;23.296;2022-12-04T01:49:20;30.03;;;21.83;;
15476;SDS011;7840;42.702;23.296;2022-12-04T01:51:52;31.27;;;21.23;;
15476;SDS011;7840;42.702;23.296;2022-12-04T01:54:25;29.80;;;21.33;;
15476;SDS011;7840;42.702;23.296;2022-12-04T01:56:58;20.13;;;16.27;;
15476;SDS011;7840;42.702;23.296;2022-12-04T01:59:39;24.40;;;16.43;;
15476;SDS011;7840;42.702;23.296;2022-12-04T02:02:15;24.40;;;18.40;;
15476;SDS011;7840;42.702;23.296;2022-12-04T02:04:47;22.70;;;17.13;;
15476;SDS011;7840;42.702;23.296;2022-12-04T02:07:16;13.17;;;10.87;;
15476;SDS011;7840;42.702;23.296;2022-12-04T02:09:43;19.73;;;14.93;;
15476;SDS011;7840;42.702;23.296;2022-12-04T02:12:18;19.80;;;12.80;;
15476;SDS011;7840;42.702;23.296;2022-12-04T02:15:00;16.67;;;12.97;;
15476;SDS011;7840;42.702;23.296;2022-12-04T02:17:36;13.93;;;11.10;;
15476;SDS011;7840;42.702;23.296;2022-12-04T02:20:15;15.40;;;12.07;;
15476;SDS011;7840;42.702;23.296;2022-12-04T02:23:09;12.73;;;10.47;;
15476;SDS011;7840;42.702;23.296;2022-12-04T02:25:57;12.20;;;10.73;;
15476;SDS011;7840;42.702;23.296;2022-12-04T02:28:35;10.87;;;9.17;;
15476;SDS011;7840;42.702;23.296;2022-12-04T02:31:12;12.57;;;9.83;;
15476;SDS011;7840;42.702;23.296;2022-12-04T02:33:45;14.97;;;9.60;;
15476;SDS011;7840;42.702;23.296;2022-12-04T02:36:17;10.40;;;9.30;;
15476;SDS011;7840;42.702;23.296;2022-12-04T02:38:49;10.97;;;8.90;;
15476;SDS011;7840;42.702;23.296;2022-12-04T02:41:25;9.07;;;8.17;;
15476;SDS011;7840;42.702;23.296;2022-12-04T02:44:02;9.93;;;8.73;;
15476;SDS011;7840;42.702;23.296;2022-12-04T02:46:46;10.33;;;8.47;;
15476;SDS011;7840;42.702;23.296;2022-12-04T02:49:20;9.33;;;7.90;;
15476;SDS011;7840;42.702;23.296;2022-12-04T02:51:50;11.00;;;8.23;;
15476;SDS011;7840;42.702;23.296;2022-12-04T02:54:22;9.33;;;8.00;;
15476;SDS011;7840;42.702;23.296;2022-12-04T02:56:55;14.47;;;10.43;;
15476;SDS011;7840;42.702;23.296;2022-12-04T02:59:28;10.67;;;9.03;;
15476;SDS011;7840;42.702;23.296;2022-12-04T03:02:02;11.80;;;9.00;;
15476;SDS011;7840;42.702;23.296;2022-12-04T03:04:34;13.90;;;10.67;;
15476;SDS011;7840;42.702;23.296;2022-12-04T03:07:05;16.63;;;12.33;;
15476;SDS011;7840;42.702;23.296;2022-12-04T03:09:39;22.67;;;15.03;;
15476;SDS011;7840;42.702;23.296;2022-12-04T03:12:11;17.17;;;11.93;;
15476;SDS011;7840;42.702;23.296;2022-12-04T03:14:46;11.63;;;10.13;;
15476;SDS011;7840;42.702;23.296;2022-12-04T03:17:21;11.23;;;9.10;;
15476;SDS011;7840;42.702;23.296;2022-12-04T03:19:52;11.33;;;9.33;;
15476;SDS011;7840;42.702;23.296;2022-12-04T03:22:25;9.70;;;8.67;;
15476;SDS011;7840;42.702;23.296;2022-12-04T03:24:56;9.17;;;7.37;;
15476;SDS011;7840;42.702;23.296;2022-12-04T03:27:25;8.47;;;7.57;;
15476;SDS011;7840;42.702;23.296;2022-12-04T03:30:09;9.20;;;7.57;;
15476;SDS011;7840;42.702;23.296;2022-12-04T03:33:06;11.30;;;9.07;;
15476;SDS011;7840;42.702;23.296;2022-12-04T03:35:38;11.57;;;9.23;;
15476;SDS011;7840;42.702;23.296;2022-12-04T03:38:11;10.53;;;9.40;;
15476;SDS011;7840;42.702;23.296;2022-12-04T03:40:48;10.30;;;7.77;;
15476;SDS011;7840;42.702;23.296;2022-12-04T03:43:42;10.37;;;8.33;;
15476;SDS011;7840;42.702;23.296;2022-12-04T03:46:21;11.60;;;8.10;;
15476;SDS011;7840;42.702;23.296;2022-12-04T03:49:12;8.50;;;6.83;;
15476;SDS011;7840;42.702;23.296;2022-12-04T03:51:46;9.47;;;7.00;;
15476;SDS011;7840;42.702;23.296;2022-12-04T03:54:35;9.63;;;7.23;;
15476;SDS011;7840;42.702;23.296;2022-12-04T03:57:10;8.67;;;7.20;;
15476;SDS011;7840;42.702;23.296;2022-12-04T03:59:42;7.07;;;6.37;;
15476;SDS011;7840;42.702;23.296;2022-12-04T04:02:16;8.07;;;6.53;;
15476;SDS011;7840;42.702;23.296;2022-12-04T04:04:55;7.27;;;6.23;;
15476;SDS011;7840;42.702;23.296;2022-12-04T04:07:27;7.97;;;6.27;;
15476;SDS011;7840;42.702;23.296;2022-12-04T04:10:01;6.93;;;6.13;;
15476;SDS011;7840;42.702;23.296;2022-12-04T04:12:45;6.83;;;6.13;;
15476;SDS011;7840;42.702;23.296;2022-12-04T04:15:37;7.87;;;6.27;;
15476;SDS011;7840;42.702;23.296;2022-12-04T04:18:28;6.83;;;6.10;;
15476;SDS011;7840;42.702;23.296;2022-12-04T04:21:15;6.77;;;6.10;;
15476;SDS011;7840;42.702;23.296;2022-12-04T04:24:04;8.67;;;7.77;;
15476;SDS011;7840;42.702;23.296;2022-12-04T04:26:42;8.57;;;7.67;;
15476;SDS011;7840;42.702;23.296;2022-12-04T04:29:12;9.17;;;8.07;;
15476;SDS011;7840;42.702;23.296;2022-12-04T04:31:42;7.97;;;7.17;;
15476;SDS011;7840;42.702;23.296;2022-12-04T04:34:36;7.57;;;6.30;;
15476;SDS011;7840;42.702;23.296;2022-12-04T04:37:15;9.67;;;6.63;;
15476;SDS011;7840;42.702;23.296;2022-12-04T04:39:53;9.63;;;6.03;;
15476;SDS011;7840;42.702;23.296;2022-12-04T04:42:29;5.93;;;5.27;;
15476;SDS011;7840;42.702;23.296;2022-12-04T04:45:02;7.00;;;6.30;;
15476;SDS011;7840;42.702;23.296;2022-12-04T04:47:35;6.67;;;6.00;;
15476;SDS011;7840;42.702;23.296;2022-12-04T04:50:10;6.73;;;6.03;;
15476;SDS011;7840;42.702;23.296;2022-12-04T04:52:41;7.33;;;5.80;;
15476;SDS011;7840;42.702;23.296;2022-12-04T04:55:13;6.50;;;5.80;;
15476;SDS011;7840;42.702;23.296;2022-12-04T04:57:51;7.17;;;5.60;;
15476;SDS011;7840;42.702;23.296;2022-12-04T05:00:19;6.97;;;5.90;;
15476;SDS011;7840;42.702;23.296;2022-12-04T05:02:48;8.17;;;6.50;;
15476;SDS011;7840;42.702;23.296;2022-12-04T05:05:18;6.90;;;5.90;;
15476;SDS011;7840;42.702;23.296;2022-12-04T05:07:46;6.47;;;5.87;;
15476;SDS011;7840;42.702;23.296;2022-12-04T05:10:14;6.73;;;5.77;;
15476;SDS011;7840;42.702;23.296;2022-12-04T05:12:44;9.10;;;6.77;;
15476;SDS011;7840;42.702;23.296;2022-12-04T05:15:12;7.97;;;6.50;;
15476;SDS011;7840;42.702;23.296;2022-12-04T05:17:40;7.80;;;6.83;;
15476;SDS011;7840;42.702;23.296;2022-12-04T05:20:10;7.10;;;6.40;;
15476;SDS011;7840;42.702;23.296;2022-12-04T05:22:39;8.20;;;6.93;;
15476;SDS011;7840;42.702;23.296;2022-12-04T05:25:07;8.27;;;7.43;;
15476;SDS011;7840;42.702;23.296;2022-12-04T05:27:35;6.97;;;6.27;;
15476;SDS011;7840;42.702;23.296;2022-12-04T05:30:05;9.83;;;7.30;;
15476;SDS011;7840;42.702;23.296;2022-12-04T05:32:33;9.07;;;7.93;;
15476;SDS011;7840;42.702;23.296;2022-12-04T05:35:01;12.50;;;8.37;;
15476;SDS011;7840;42.702;23.296;2022-12-04T05:37:29;11.93;;;8.20;;
15476;SDS011;7840;42.702;23.296;2022-12-04T05:39:58;9.97;;;8.10;;
15476;SDS011;7840;42.702;23.296;2022-12-04T05:42:25;9.13;;;8.13;;
15476;SDS011;7840;42.702;23.296;2022-12-04T05:44:53;12.90;;;9.43;;
15476;SDS011;7840;42.702;23.296;2022-12-04T05:47:20;10.63;;;9.53;;
15476;SDS011;7840;42.702;23.296;2022-12-04T05:49:48;9.80;;;8.67;;
15476;SDS011;7840;42.702;23.296;2022-12-04T05:52:16;11.10;;;9.33;;
15476;SDS011;7840;42.702;23.296;2022-12-04T05:54:43;10.13;;;9.03;;
15476;SDS011;7840;42.702;23.296;2022-12-04T05:57:12;9.47;;;8.30;;
15476;SDS011;7840;42.702;23.296;2022-12-04T05:59:40;8.93;;;7.93;;
15476;SDS011;7840;42.702;23.296;2022-12-04T06:02:10;8.40;;;7.50;;
15476;SDS011;7840;42.702;23.296;2022-12-04T06:15:06;8.53;;;7.53;;
15476;SDS011;7840;42.702;23.296;2022-12-04T06:17:34;10.63;;;8.10;;
15476;SDS011;7840;42.702;23.296;2022-12-04T06:20:01;9.30;;;8.30;;
15476;SDS011;7840;42.702;23.296;2022-12-04T06:22:29;10.87;;;7.60;;
15476;SDS011;7840;42.702;23.296;2022-12-04T06:24:57;7.93;;;7.13;;
15476;SDS011;7840;42.702;23.296;2022-12-04T06:27:25;9.47;;;7.80;;
15476;SDS011;7840;42.702;23.296;2022-12-04T06:29:52;8.20;;;7.13;;
15476;SDS011;7840;42.702;23.296;2022-12-04T06:32:21;10.03;;;7.97;;
15476;SDS011;7840;42.702;23.296;2022-12-04T06:34:50;8.93;;;8.03;;
15476;SDS011;7840;42.702;23.296;2022-12-04T06:37:26;9.30;;;8.40;;
15476;SDS011;7840;42.702;23.296;2022-12-04T06:39:54;9.50;;;8.47;;
15476;SDS011;7840;42.702;23.296;2022-12-04T06:42:22;10.80;;;7.43;;
15476;SDS011;7840;42.702;23.296;2022-12-04T06:44:54;9.07;;;7.80;;
15476;SDS011;7840;42.702;23.296;2022-12-04T06:47:23;12.93;;;9.13;;
15476;SDS011;7840;42.702;23.296;2022-12-04T06:49:53;9.67;;;8.53;;
15476;SDS011;7840;42.702;23.296;2022-12-04T06:52:21;9.87;;;8.63;;
15476;SDS011;7840;42.702;23.296;2022-12-04T06:54:52;9.43;;;8.47;;
15476;SDS011;7840;42.702;23.296;2022-12-04T06:57:27;13.00;;;8.40;;
15476;SDS011;7840;42.702;23.296;2022-12-04T06:59:58;12.27;;;9.00;;
15476;SDS011;7840;42.702;23.296;2022-12-04T07:05:24;13.43;;;8.97;;
15476;SDS011;7840;42.702;23.296;2022-12-04T07:07:55;10.40;;;9.17;;
15476;SDS011;7840;42.702;23.296;2022-12-04T07:10:23;14.03;;;8.93;;
15476;SDS011;7840;42.702;23.296;2022-12-04T07:12:51;11.83;;;8.63;;
15476;SDS011;7840;42.702;23.296;2022-12-04T07:15:22;11.30;;;9.40;;
15476;SDS011;7840;42.702;23.296;2022-12-04T07:17:49;10.13;;;9.00;;
15476;SDS011;7840;42.702;23.296;2022-12-04T07:20:17;13.17;;;9.77;;
15476;SDS011;7840;42.702;23.296;2022-12-04T07:22:46;11.23;;;9.67;;
15476;SDS011;7840;42.702;23.296;2022-12-04T07:25:14;11.17;;;9.23;;
15476;SDS011;7840;42.702;23.296;2022-12-04T07:27:42;10.23;;;8.27;;
15476;SDS011;7840;42.702;23.296;2022-12-04T07:30:14;9.97;;;8.47;;
15476;SDS011;7840;42.702;23.296;2022-12-04T07:32:50;11.17;;;8.13;;
15476;SDS011;7840;42.702;23.296;2022-12-04T07:35:32;8.67;;;7.57;;
15476;SDS011;7840;42.702;23.296;2022-12-04T07:38:01;8.40;;;7.43;;
15476;SDS011;7840;42.702;23.296;2022-12-04T07:40:29;8.97;;;7.20;;
15476;SDS011;7840;42.702;23.296;2022-12-04T07:42:56;10.27;;;8.37;;
15476;SDS011;7840;42.702;23.296;2022-12-04T07:45:24;10.53;;;8.13;;
15476;SDS011;7840;42.702;23.296;2022-12-04T07:47:52;11.13;;;7.70;;
15476;SDS011;7840;42.702;23.296;2022-12-04T07:50:22;10.23;;;8.00;;
15476;SDS011;7840;42.702;23.296;2022-12-04T07:52:50;9.27;;;7.47;;
15476;SDS011;7840;42.702;23.296;2022-12-04T07:55:19;8.80;;;6.83;;
15476;SDS011;7840;42.702;23.296;2022-12-04T07:57:46;10.00;;;6.63;;
15476;SDS011;7840;42.702;23.296;2022-12-04T08:00:14;8.27;;;6.57;;
15476;SDS011;7840;42.702;23.296;2022-12-04T08:02:42;8.70;;;6.67;;
15476;SDS011;7840;42.702;23.296;2022-12-04T08:05:11;9.20;;;7.27;;
15476;SDS011;7840;42.702;23.296;2022-12-04T08:07:39;9.27;;;6.80;;
15476;SDS011;7840;42.702;23.296;2022-12-04T08:10:07;7.97;;;5.97;;
15476;SDS011;7840;42.702;23.296;2022-12-04T08:12:37;8.77;;;6.77;;
15476;SDS011;7840;42.702;23.296;2022-12-04T08:15:06;8.13;;;6.60;;
15476;SDS011;7840;42.702;23.296;2022-12-04T08:17:35;6.47;;;5.67;;
15476;SDS011;7840;42.702;23.296;2022-12-04T08:20:02;6.00;;;4.70;;
15476;SDS011;7840;42.702;23.296;2022-12-04T08:22:31;7.20;;;5.70;;
15476;SDS011;7840;42.702;23.296;2022-12-04T08:24:58;6.43;;;5.73;;
15476;SDS011;7840;42.702;23.296;2022-12-04T08:27:26;8.87;;;7.17;;
15476;SDS011;7840;42.702;23.296;2022-12-04T08:29:55;9.93;;;7.77;;
15476;SDS011;7840;42.702;23.296;2022-12-04T08:32:23;11.43;;;8.30;;
15476;SDS011;7840;42.702;23.296;2022-12-04T08:34:51;9.87;;;7.77;;
15476;SDS011;7840;42.702;23.296;2022-12-04T08:37:44;7.20;;;5.73;;
15476;SDS011;7840;42.702;23.296;2022-12-04T08:40:16;8.70;;;5.93;;
15476;SDS011;7840;42.702;23.296;2022-12-04T08:42:51;9.43;;;5.63;;
15476;SDS011;7840;42.702;23.296;2022-12-04T08:57:31;5.60;;;5.07;;
15476;SDS011;7840;42.702;23.296;2022-12-04T08:59:59;7.60;;;6.00;;
15476;SDS011;7840;42.702;23.296;2022-12-04T09:02:27;7.43;;;6.13;;
15476;SDS011;7840;42.702;23.296;2022-12-04T09:04:54;8.30;;;6.67;;
15476;SDS011;7840;42.702;23.296;2022-12-04T09:07:22;7.47;;;6.20;;
15476;SDS011;7840;42.702;23.296;2022-12-04T09:09:49;8.70;;;6.80;;
15476;SDS011;7840;42.702;23.296;2022-12-04T09:12:17;7.67;;;6.23;;
15476;SDS011;7840;42.702;23.296;2022-12-04T09:14:47;8.60;;;6.40;;
15476;SDS011;7840;42.702;23.296;2022-12-04T09:17:14;8.13;;;6.77;;
15476;SDS011;7840;42.702;23.296;2022-12-04T09:19:45;7.23;;;6.13;;
15476;SDS011;7840;42.702;23.296;2022-12-04T09:22:17;7.10;;;6.20;;
15476;SDS011;7840;42.702;23.296;2022-12-04T09:25:33;8.17;;;6.40;;
15476;SDS011;7840;42.702;23.296;2022-12-04T09:28:01;9.33;;;7.03;;
15476;SDS011;7840;42.702;23.296;2022-12-04T09:30:31;6.93;;;6.10;;
15476;SDS011;7840;42.702;23.296;2022-12-04T09:32:58;9.67;;;6.33;;
15476;SDS011;7840;42.702;23.296;2022-12-04T09:35:26;7.87;;;6.13;;
15476;SDS011;7840;42.702;23.296;2022-12-04T09:37:54;7.70;;;6.07;;
15476;SDS011;7840;42.702;23.296;2022-12-04T09:40:24;6.80;;;5.73;;
15476;SDS011;7840;42.702;23.296;2022-12-04T09:42:54;6.50;;;5.63;;
15476;SDS011;7840;42.702;23.296;2022-12-04T09:45:41;6.43;;;5.00;;
15476;SDS011;7840;42.702;23.296;2022-12-04T09:48:34;11.70;;;5.80;;
15476;SDS011;7840;42.702;23.296;2022-12-04T10:12:00;7.07;;;6.37;;
15476;SDS011;7840;42.702;23.296;2022-12-04T10:14:42;10.20;;;6.87;;
15476;SDS011;7840;42.702;23.296;2022-12-04T10:17:24;7.83;;;6.47;;
15476;SDS011;7840;42.702;23.296;2022-12-04T10:20:08;7.83;;;6.70;;
15476;SDS011;7840;42.702;23.296;2022-12-04T10:22:48;7.67;;;6.70;;
15476;SDS011;7840;42.702;23.296;2022-12-04T10:25:23;9.30;;;7.57;;
15476;SDS011;7840;42.702;23.296;2022-12-04T10:27:54;8.00;;;7.20;;
15476;SDS011;7840;42.702;23.296;2022-12-04T10:30:28;9.73;;;7.57;;
15476;SDS011;7840;42.702;23.296;2022-12-04T10:33:02;8.33;;;7.50;;
15476;SDS011;7840;42.702;23.296;2022-12-04T10:35:47;9.83;;;7.40;;
15476;SDS011;7840;42.702;23.296;2022-12-04T10:38:24;11.17;;;9.30;;
15476;SDS011;7840;42.702;23.296;2022-12-04T10:41:11;9.43;;;8.13;;
15476;SDS011;7840;42.702;23.296;2022-12-04T10:44:37;8.33;;;6.83;;
15476;SDS011;7840;42.702;23.296;2022-12-04T10:47:07;7.17;;;6.47;;
15476;SDS011;7840;42.702;23.296;2022-12-04T10:49:41;8.67;;;7.20;;
15476;SDS011;7840;42.702;23.296;2022-12-04T10:52:16;9.30;;;6.07;;
15476;SDS011;7840;42.702;23.296;2022-12-04T10:54:54;7.93;;;7.07;;
15476;SDS011;7840;42.702;23.296;2022-12-04T10:57:39;7.03;;;6.33;;
15476;SDS011;7840;42.702;23.296;2022-12-04T11:00:25;7.30;;;6.27;;
15476;SDS011;7840;42.702;23.296;2022-12-04T11:02:58;8.57;;;7.27;;
15476;SDS011;7840;42.702;23.296;2022-12-04T11:05:28;9.00;;;6.67;;
15476;SDS011;7840;42.702;23.296;2022-12-04T11:08:00;7.50;;;5.80;;
15476;SDS011;7840;42.702;23.296;2022-12-04T11:23:44;6.83;;;6.00;;
15476;SDS011;7840;42.702;23.296;2022-12-04T11:26:14;6.70;;;6.00;;
15476;SDS011;7840;42.702;23.296;2022-12-04T11:28:54;9.00;;;6.80;;
15476;SDS011;7840;42.702;23.296;2022-12-04T11:31:26;7.50;;;6.03;;
15476;SDS011;7840;42.702;23.296;2022-12-04T11:33:57;7.47;;;6.33;;
15476;SDS011;7840;42.702;23.296;2022-12-04T11:36:29;6.93;;;5.73;;
15476;SDS011;7840;42.702;23.296;2022-12-04T11:39:12;6.27;;;4.53;;
15476;SDS011;7840;42.702;23.296;2022-12-04T11:41:44;5.60;;;4.73;;
15476;SDS011;7840;42.702;23.296;2022-12-04T11:44:19;6.77;;;5.67;;
15476;SDS011;7840;42.702;23.296;2022-12-04T11:46:51;8.70;;;5.40;;
15476;SDS011;7840;42.702;23.296;2022-12-04T11:49:20;7.97;;;6.10;;
15476;SDS011;7840;42.702;23.296;2022-12-04T12:07:59;5.30;;;4.80;;
15476;SDS011;7840;42.702;23.296;2022-12-04T12:10:59;6.00;;;5.40;;
15476;SDS011;7840;42.702;23.296;2022-12-04T12:13:43;6.20;;;5.30;;
15476;SDS011;7840;42.702;23.296;2022-12-04T12:16:21;8.27;;;6.00;;
15476;SDS011;7840;42.702;23.296;2022-12-04T12:19:02;8.57;;;6.80;;
15476;SDS011;7840;42.702;23.296;2022-12-04T12:21:42;7.53;;;6.73;;
15476;SDS011;7840;42.702;23.296;2022-12-04T12:24:23;8.60;;;6.83;;
15476;SDS011;7840;42.702;23.296;2022-12-04T12:26:54;7.47;;;6.77;;
15476;SDS011;7840;42.702;23.296;2022-12-04T12:29:41;6.87;;;6.17;;
15476;SDS011;7840;42.702;23.296;2022-12-04T12:34:49;7.77;;;6.67;;
15476;SDS011;7840;42.702;23.296;2022-12-04T12:37:24;8.00;;;7.20;;
15476;SDS011;7840;42.702;23.296;2022-12-04T12:40:00;8.43;;;7.00;;
15476;SDS011;7840;42.702;23.296;2022-12-04T12:42:37;8.63;;;7.73;;
15476;SDS011;7840;42.702;23.296;2022-12-04T12:45:15;9.23;;;7.97;;
15476;SDS011;7840;42.702;23.296;2022-12-04T12:47:51;11.87;;;8.27;;
15476;SDS011;7840;42.702;23.296;2022-12-04T12:50:31;8.90;;;7.93;;
15476;SDS011;7840;42.702;23.296;2022-12-04T12:53:15;9.87;;;8.13;;
15476;SDS011;7840;42.702;23.296;2022-12-04T12:55:55;9.43;;;8.30;;
15476;SDS011;7840;42.702;23.296;2022-12-04T12:58:52;9.07;;;8.17;;
15476;SDS011;7840;42.702;23.296;2022-12-04T13:01:33;9.63;;;7.23;;
15476;SDS011;7840;42.702;23.296;2022-12-04T13:04:18;13.03;;;8.80;;
15476;SDS011;7840;42.702;23.296;2022-12-04T13:06:57;12.87;;;9.57;;
15476;SDS011;7840;42.702;23.296;2022-12-04T13:09:41;11.07;;;9.23;;
15476;SDS011;7840;42.702;23.296;2022-12-04T13:12:17;13.77;;;9.10;;
15476;SDS011;7840;42.702;23.296;2022-12-04T13:14:50;14.53;;;9.57;;
15476;SDS011;7840;42.702;23.296;2022-12-04T13:17:24;10.83;;;9.50;;
15476;SDS011;7840;42.702;23.296;2022-12-04T13:19:58;10.60;;;8.77;;
15476;SDS011;7840;42.702;23.296;2022-12-04T13:22:34;11.27;;;9.10;;
15476;SDS011;7840;42.702;23.296;2022-12-04T13:25:26;11.77;;;9.73;;
15476;SDS011;7840;42.702;23.296;2022-12-04T13:28:13;10.60;;;9.50;;
15476;SDS011;7840;42.702;23.296;2022-12-04T13:30:51;12.93;;;10.20;;
15476;SDS011;7840;42.702;23.296;2022-12-04T13:36:28;10.43;;;9.00;;
15476;SDS011;7840;42.702;23.296;2022-12-04T13:42:29;12.97;;;10.37;;
15476;SDS011;7840;42.702;23.296;2022-12-04T13:45:02;12.70;;;10.53;;
15476;SDS011;7840;42.702;23.296;2022-12-04T13:47:36;13.13;;;10.00;;
15476;SDS011;7840;42.702;23.296;2022-12-04T13:50:07;11.20;;;9.60;;
15476;SDS011;7840;42.702;23.296;2022-12-04T13:52:51;13.37;;;10.70;;
15476;SDS011;7840;42.702;23.296;2022-12-04T13:55:25;11.27;;;10.07;;
15476;SDS011;7840;42.702;23.296;2022-12-04T13:58:21;14.23;;;11.87;;
15476;SDS011;7840;42.702;23.296;2022-12-04T14:01:02;16.57;;;11.27;;
15476;SDS011;7840;42.702;23.296;2022-12-04T14:03:39;12.93;;;9.00;;
15476;SDS011;7840;42.702;23.296;2022-12-04T14:06:22;9.83;;;8.80;;
15476;SDS011;7840;42.702;23.296;2022-12-04T14:08:58;10.30;;;9.20;;
15476;SDS011;7840;42.702;23.296;2022-12-04T14:11:47;10.30;;;9.07;;
15476;SDS011;7840;42.702;23.296;2022-12-04T14:14:23;11.53;;;9.30;;
15476;SDS011;7840;42.702;23.296;2022-12-04T14:17:14;9.47;;;8.47;;
15476;SDS011;7840;42.702;23.296;2022-12-04T14:19:50;11.23;;;9.57;;
15476;SDS011;7840;42.702;23.296;2022-12-04T14:22:28;10.57;;;8.43;;
15476;SDS011;7840;42.702;23.296;2022-12-04T14:25:32;12.00;;;8.77;;
15476;SDS011;7840;42.702;23.296;2022-12-04T14:28:22;10.77;;;8.90;;
15476;SDS011;7840;42.702;23.296;2022-12-04T14:31:13;12.90;;;9.93;;
15476;SDS011;7840;42.702;23.296;2022-12-04T14:34:07;11.87;;;9.30;;
15476;SDS011;7840;42.702;23.296;2022-12-04T14:36:45;11.93;;;10.17;;
15476;SDS011;7840;42.702;23.296;2022-12-04T14:39:19;12.00;;;10.23;;
15476;SDS011;7840;42.702;23.296;2022-12-04T14:42:05;10.97;;;9.47;;
15476;SDS011;7840;42.702;23.296;2022-12-04T14:44:39;12.43;;;10.13;;
15476;SDS011;7840;42.702;23.296;2022-12-04T14:47:12;14.53;;;10.53;;
15476;SDS011;7840;42.702;23.296;2022-12-04T14:49:52;11.10;;;9.73;;
15476;SDS011;7840;42.702;23.296;2022-12-04T14:52:34;15.00;;;10.20;;
15476;SDS011;7840;42.702;23.296;2022-12-04T14:55:21;12.50;;;9.80;;
15476;SDS011;7840;42.702;23.296;2022-12-04T14:57:57;11.17;;;9.33;;
15476;SDS011;7840;42.702;23.296;2022-12-04T15:01:21;11.07;;;9.67;;
15476;SDS011;7840;42.702;23.296;2022-12-04T15:03:54;11.73;;;9.13;;
15476;SDS011;7840;42.702;23.296;2022-12-04T15:06:29;10.13;;;8.67;;
15476;SDS011;7840;42.702;23.296;2022-12-04T15:08:59;10.00;;;9.00;;
15476;SDS011;7840;42.702;23.296;2022-12-04T15:11:45;10.07;;;9.03;;
15476;SDS011;7840;42.702;23.296;2022-12-04T15:14:39;10.80;;;8.77;;
15476;SDS011;7840;42.702;23.296;2022-12-04T15:17:08;11.23;;;9.03;;
15476;SDS011;7840;42.702;23.296;2022-12-04T15:19:39;13.10;;;9.43;;
15476;SDS011;7840;42.702;23.296;2022-12-04T15:22:21;11.83;;;9.13;;
15476;SDS011;7840;42.702;23.296;2022-12-04T15:24:51;12.07;;;9.70;;
15476;SDS011;7840;42.702;23.296;2022-12-04T15:27:20;9.70;;;8.23;;
15476;SDS011;7840;42.702;23.296;2022-12-04T15:30:04;9.77;;;8.20;;
15476;SDS011;7840;42.702;23.296;2022-12-04T15:32:40;15.57;;;9.90;;
15476;SDS011;7840;42.702;23.296;2022-12-04T15:35:19;10.90;;;8.63;;
15476;SDS011;7840;42.702;23.296;2022-12-04T15:37:52;12.40;;;9.17;;
15476;SDS011;7840;42.702;23.296;2022-12-04T15:40:21;11.27;;;9.53;;
15476;SDS011;7840;42.702;23.296;2022-12-04T15:42:50;12.50;;;9.80;;
15476;SDS011;7840;42.702;23.296;2022-12-04T15:45:22;14.27;;;10.20;;
15476;SDS011;7840;42.702;23.296;2022-12-04T15:47:56;12.53;;;8.10;;
15476;SDS011;7840;42.702;23.296;2022-12-04T15:50:26;12.20;;;10.30;;
15476;SDS011;7840;42.702;23.296;2022-12-04T15:53:01;12.43;;;10.07;;
15476;SDS011;7840;42.702;23.296;2022-12-04T15:55:35;13.63;;;11.00;;
15476;SDS011;7840;42.702;23.296;2022-12-04T15:58:06;15.33;;;10.63;;
15476;SDS011;7840;42.702;23.296;2022-12-04T16:00:52;12.47;;;10.10;;
15476;SDS011;7840;42.702;23.296;2022-12-04T16:03:24;12.83;;;9.10;;
15476;SDS011;7840;42.702;23.296;2022-12-04T16:06:03;13.03;;;10.83;;
15476;SDS011;7840;42.702;23.296;2022-12-04T16:08:45;14.60;;;10.80;;
15476;SDS011;7840;42.702;23.296;2022-12-04T16:11:27;15.47;;;11.13;;
15476;SDS011;7840;42.702;23.296;2022-12-04T16:14:03;15.53;;;12.27;;
15476;SDS011;7840;42.702;23.296;2022-12-04T16:16:39;16.30;;;12.03;;
15476;SDS011;7840;42.702;23.296;2022-12-04T16:19:11;17.40;;;13.23;;
15476;SDS011;7840;42.702;23.296;2022-12-04T16:21:42;15.20;;;12.53;;
15476;SDS011;7840;42.702;23.296;2022-12-04T16:24:12;17.03;;;12.97;;
15476;SDS011;7840;42.702;23.296;2022-12-04T16:26:39;16.17;;;12.20;;
15476;SDS011;7840;42.702;23.296;2022-12-04T16:29:07;16.03;;;12.03;;
15476;SDS011;7840;42.702;23.296;2022-12-04T16:31:35;15.87;;;11.80;;
15476;SDS011;7840;42.702;23.296;2022-12-04T16:34:03;15.30;;;12.17;;
15476;SDS011;7840;42.702;23.296;2022-12-04T16:36:31;15.00;;;11.53;;
15476;SDS011;7840;42.702;23.296;2022-12-04T16:39:01;16.37;;;11.90;;
15476;SDS011;7840;42.702;23.296;2022-12-04T16:41:31;15.33;;;12.43;;
15476;SDS011;7840;42.702;23.296;2022-12-04T16:43:59;16.77;;;12.10;;
15476;SDS011;7840;42.702;23.296;2022-12-04T16:46:46;14.90;;;10.67;;
15476;SDS011;7840;42.702;23.296;2022-12-04T16:49:16;14.97;;;10.40;;
15476;SDS011;7840;42.702;23.296;2022-12-04T16:51:45;15.43;;;11.37;;
15476;SDS011;7840;42.702;23.296;2022-12-04T16:54:17;17.73;;;12.37;;
15476;SDS011;7840;42.702;23.296;2022-12-04T16:56:54;13.87;;;10.87;;
15476;SDS011;7840;42.702;23.296;2022-12-04T16:59:21;15.83;;;11.53;;
15476;SDS011;7840;42.702;23.296;2022-12-04T17:01:49;14.80;;;11.60;;
15476;SDS011;7840;42.702;23.296;2022-12-04T17:04:19;16.87;;;11.50;;